Waupaca, WI

4:14 AM CDT on September 19, 2014 (GMT -0500)
Woodridge Subdivision/KC9WA | Change Station
CLOSE
Current Station
Personal Weather Station
Location: Waupaca, WI
Elevation: 951 ft
Nearby Weather Stations

Elev 951 ft 44.37 °N, 89.12 °W | Updated 48 seconds ago

Fog
Fog
47.8 °F
Feels Like 48 °F
N
0.0
Wind Variable Wind from South
Gusts 0.7 mph

Today
High -- | Low -- °F
--% Chance of Precip.
Yesterday
High -- | Low -- °F
Precip. -- in
6:40 AM 6:59 PM
Waning Crescent, 20% visible
Pressure 30.14 in
Visibility 0.2 miles
Clouds Overcast 100 ft
Windchill 48 °F
Dew Point 48 °F
Humidity 99%
Rainfall 0.00 in
Snow Depth Not available.
UV 0 out of 12
Pollen 4.00 out of 12
Air Quality Not available.
Flu Activity Not available.
METAR KPCZ 190855Z AUTO 00000KT 1/4SM FG OVC001 08/08 A3014 RMK AO2 T00840077

More Conditions Fewer Conditions

Pressure 30.14 in
Visibility 0.2 miles
Clouds Overcast 100 ft
Windchill 48 °F
Dew Point 48 °F
Humidity 99%
Rainfall 0.00 in
Snow Depth Not available.
UV 0 out of 12
Pollen 4.00 out of 12
Air Quality Not available.
Flu Activity Not available.
METAR KPCZ 190855Z AUTO 00000KT 1/4SM FG OVC001 08/08 A3014 RMK AO2 T00840077

More Conditions Fewer Conditions

10-Day Weather Forecast

Almanac

Astronomy

Sep. 19, 2014 Rise Set
Actual Time 6:40 AM CDT 6:59 PM CDT
Civil Twilight 6:10 AM CDT 7:28 PM CDT
Nautical Twilight 5:36 AM CDT 8:02 PM CDT
Astronomical Twilight 5:01 AM CDT 8:37 PM CDT
Moon 2:17 AM CDT 4:34 PM CDT
Length of Visible Light 13h 17m
Length of Day
12h 19m
Tomorrow will be 3m 2s shorter.
Waning Crescent, 20% of the Moon is Illuminated
Today
Waning Crescent
Sep 24
New
Oct 1
First Quarter
Oct 8
Full
Oct 15
Last Quarter

Today's Extremes

State Highs State Lows

Community

WunderPhotos

Upload Photos

1,754,583 photos uploaded!

Nearby

Snow Depth

Station Depth Elevation
No new snow has been reported.

Earthquake Activity

City Distance Mag. Time & Date
No recent earthquake activity has been reported nearby.
Minimum magnitude displayed is 2.5.

Coastal Water Temperatures

Place Temperature
No Stations Reporting

Nearby Weather Stations